Time;durP1;ratioP1;P1;durP2;ratioP2;P2;SDS_P1;SDS_P2;PMS_P1;PMS_P2;Temp;Humidity;BMP_temperature;BMP_pressure;BME280_temperature;BME280_humidity;BME280_pressure;Samples;Min_cycle;Max_cycle;Signal;HPM_P1;HPM_P2
2023/09/10 00:01:31;;;;;;;88.40;56.20;;;19.20;99.90;;;;;;5009482;28;20205;-65
2023/09/10 00:03:59;;;;;;;92.18;56.17;;;19.10;99.90;;;;;;5019174;28;20205;-65
2023/09/10 00:06:25;;;;;;;82.75;54.67;;;19.20;99.90;;;;;;4979569;28;20205;-65
2023/09/10 00:08:53;;;;;;;82.72;55.97;;;19.10;99.90;;;;;;5025013;28;20225;-65
2023/09/10 00:11:20;;;;;;;80.15;53.50;;;19.10;99.90;;;;;;5019197;28;20229;-65
2023/09/10 00:13:46;;;;;;;82.82;53.65;;;19.00;99.90;;;;;;5013813;28;21078;-65
2023/09/10 00:16:13;;;;;;;80.28;52.38;;;19.10;99.90;;;;;;4988352;28;20249;-65
2023/09/10 00:18:40;;;;;;;73.32;46.08;;;19.10;99.90;;;;;;5014096;28;20202;-64
2023/09/10 00:21:08;;;;;;;66.25;46.25;;;18.90;99.90;;;;;;4968563;28;20750;-65
2023/09/10 00:23:35;;;;;;;59.70;42.20;;;18.90;99.90;;;;;;5011607;28;20968;-65
2023/09/10 00:26:02;;;;;;;51.95;37.65;;;18.90;99.90;;;;;;5004552;28;20797;-65
2023/09/10 00:28:29;;;;;;;49.38;34.60;;;18.70;99.90;;;;;;4987878;28;20598;-65
2023/09/10 00:30:56;;;;;;;43.95;34.35;;;18.70;99.90;;;;;;5017912;28;20363;-65
2023/09/10 00:33:22;;;;;;;43.05;33.03;;;18.60;99.90;;;;;;5003935;28;20206;-65
2023/09/10 00:35:50;;;;;;;49.13;32.25;;;18.50;99.90;;;;;;4957871;28;21943;-65
2023/09/10 00:38:18;;;;;;;44.45;32.20;;;18.40;99.90;;;;;;5021425;28;20201;-65
2023/09/10 00:40:44;;;;;;;42.95;32.20;;;18.40;99.90;;;;;;5023515;28;20289;-65
2023/09/10 00:43:11;;;;;;;44.90;33.33;;;18.40;99.90;;;;;;5019928;28;20213;-65
2023/09/10 00:45:38;;;;;;;49.90;35.22;;;18.40;99.90;;;;;;5023144;28;20696;-65
2023/09/10 00:48:06;;;;;;;46.88;34.90;;;18.40;99.90;;;;;;5021051;28;20205;-66
2023/09/10 00:50:33;;;;;;;45.88;32.00;;;18.40;99.90;;;;;;5009024;28;20228;-65
2023/09/10 00:53:01;;;;;;;48.40;35.22;;;18.30;99.90;;;;;;4984326;28;20397;-65
2023/09/10 00:55:32;;;;;;;52.05;38.30;;;18.30;99.90;;;;;;5026427;28;20202;-65
2023/09/10 00:58:00;;;;;;;78.43;51.03;;;18.20;99.90;;;;;;5017331;28;20337;-65
2023/09/10 01:00:28;;;;;;;90.85;55.40;;;18.40;99.90;;;;;;5027088;28;20205;-65
2023/09/10 01:02:58;;;;;;;104.85;59.35;;;18.60;99.90;;;;;;5018895;28;20694;-65
2023/09/10 01:05:25;;;;;;;155.50;65.43;;;18.70;99.90;;;;;;5008033;28;20616;-65
2023/09/10 01:07:52;;;;;;;145.07;66.65;;;18.70;99.90;;;;;;4975642;28;20318;-65
2023/09/10 01:10:21;;;;;;;85.68;48.92;;;18.70;99.90;;;;;;5023904;28;20224;-65
2023/09/10 01:12:56;;;;;;;67.25;42.17;;;18.40;99.90;;;;;;5010266;28;20880;-65
2023/09/10 01:15:29;;;;;;;69.40;42.63;;;18.40;99.90;;;;;;5022770;28;20201;-64
2023/09/10 01:18:03;;;;;;;81.65;48.53;;;18.30;99.90;;;;;;5023010;28;21230;-64
2023/09/10 01:21:04;;;;;;;100.05;48.00;;;18.30;99.90;;;;;;5012419;28;20310;-65
2023/09/10 01:23:44;;;;;;;100.68;51.58;;;18.30;99.90;;;;;;4943598;28;20213;-65
2023/09/10 01:26:12;;;;;;;93.57;50.22;;;18.30;99.90;;;;;;5026852;28;20216;-65
2023/09/10 01:28:39;;;;;;;91.00;53.60;;;18.20;99.90;;;;;;5010776;28;20216;-64
2023/09/10 01:31:05;;;;;;;96.65;54.45;;;18.20;99.90;;;;;;5023156;28;20233;-64
2023/09/10 01:33:35;;;;;;;102.93;55.55;;;18.40;99.90;;;;;;5022401;28;20197;-64
2023/09/10 01:36:07;;;;;;;118.28;53.67;;;18.40;99.90;;;;;;5012970;28;20980;-65
2023/09/10 01:38:41;;;;;;;132.05;51.15;;;18.30;99.90;;;;;;4976454;28;20296;-64
2023/09/10 01:41:13;;;;;;;104.90;49.85;;;18.20;99.90;;;;;;5025440;28;20198;-65
2023/09/10 01:43:41;;;;;;;82.72;46.05;;;18.20;99.90;;;;;;5014240;28;20206;-65
2023/09/10 01:46:09;;;;;;;89.38;46.45;;;18.20;99.90;;;;;;5020566;28;20212;-64
2023/09/10 01:48:36;;;;;;;96.40;39.33;;;18.20;99.90;;;;;;5022078;28;20201;-65
2023/09/10 01:51:03;;;;;;;63.05;37.95;;;18.30;99.90;;;;;;5015663;28;20252;-65
2023/09/10 01:53:30;;;;;;;48.55;33.92;;;18.20;99.90;;;;;;4973465;28;20213;-65
2023/09/10 01:55:57;;;;;;;63.72;34.30;;;18.30;99.90;;;;;;5015041;28;20297;-65
2023/09/10 01:58:25;;;;;;;52.55;33.63;;;18.20;99.90;;;;;;5027177;28;20599;-65
2023/09/10 02:00:52;;;;;;;61.40;32.80;;;18.10;99.90;;;;;;5014406;28;20941;-65
2023/09/10 02:03:18;;;;;;;46.40;32.10;;;18.10;99.90;;;;;;5023232;28;20682;-65
2023/09/10 02:05:45;;;;;;;60.13;28.98;;;18.10;99.90;;;;;;5018981;28;20213;-64
2023/09/10 02:08:12;;;;;;;58.38;26.52;;;18.10;99.90;;;;;;4962603;28;20750;-65
2023/09/10 02:10:39;;;;;;;80.32;28.15;;;18.10;99.90;;;;;;5019862;28;20710;-64
2023/09/10 02:13:06;;;;;;;47.88;27.70;;;18.10;99.90;;;;;;5015447;28;20392;-65
2023/09/10 02:15:34;;;;;;;39.35;23.80;;;18.10;99.90;;;;;;5008478;28;20201;-65
2023/09/10 02:18:00;;;;;;;42.22;26.20;;;18.00;99.90;;;;;;5020246;28;20588;-65
2023/09/10 02:20:27;;;;;;;47.13;25.73;;;18.10;99.90;;;;;;5026131;28;20224;-64
2023/09/10 02:22:54;;;;;;;68.63;26.75;;;18.10;99.90;;;;;;4990298;28;20198;-65
2023/09/10 02:25:21;;;;;;;43.78;26.90;;;18.00;99.90;;;;;;5005033;28;20925;-65
2023/09/10 02:27:47;;;;;;;47.50;26.52;;;18.00;99.90;;;;;;5024998;28;20674;-65
2023/09/10 02:30:14;;;;;;;45.13;24.27;;;18.00;99.90;;;;;;5006991;28;20616;-65
2023/09/10 02:32:42;;;;;;;36.45;24.20;;;18.00;99.90;;;;;;5023416;28;21394;-65
2023/09/10 02:35:09;;;;;;;40.10;24.30;;;18.00;99.90;;;;;;5021173;28;20405;-65
2023/09/10 02:37:36;;;;;;;36.83;23.05;;;17.90;99.90;;;;;;5021210;28;20713;-65
2023/09/10 02:40:04;;;;;;;43.65;23.65;;;18.00;99.90;;;;;;4973284;28;20274;-65
2023/09/10 02:42:31;;;;;;;33.90;21.63;;;18.00;99.90;;;;;;5021209;28;20278;-65
2023/09/10 02:44:58;;;;;;;37.65;19.33;;;17.90;99.90;;;;;;5010188;28;20196;-65
2023/09/10 02:47:27;;;;;;;33.85;19.75;;;18.00;99.90;;;;;;5015577;28;20204;-65
2023/09/10 02:49:57;;;;;;;48.13;19.20;;;17.90;99.90;;;;;;5019711;28;20604;-65
2023/09/10 02:52:24;;;;;;;29.92;18.70;;;17.80;99.90;;;;;;5017903;28;20541;-65
2023/09/10 02:54:51;;;;;;;36.00;17.80;;;17.70;99.90;;;;;;4996571;28;20205;-65
2023/09/10 02:57:18;;;;;;;32.92;15.35;;;17.80;99.90;;;;;;4997940;28;20768;-65
2023/09/10 02:59:45;;;;;;;38.75;16.50;;;17.80;99.90;;;;;;5019237;28;20202;-65
2023/09/10 03:02:12;;;;;;;34.50;14.95;;;17.70;99.90;;;;;;5005397;28;20223;-65
2023/09/10 03:04:39;;;;;;;30.80;15.77;;;17.70;99.90;;;;;;5020814;28;20195;-64
2023/09/10 03:07:07;;;;;;;30.58;15.93;;;17.60;99.90;;;;;;5015936;28;20201;-65
2023/09/10 03:09:33;;;;;;;24.60;14.95;;;17.70;99.90;;;;;;5012179;28;20694;-65
2023/09/10 03:12:22;;;;;;;30.73;14.88;;;17.70;99.90;;;;;;4982700;28;20229;-65
2023/09/10 03:14:49;;;;;;;32.03;13.25;;;17.70;99.90;;;;;;5006268;28;20572;-64
2023/09/10 03:17:17;;;;;;;29.13;14.13;;;17.60;99.90;;;;;;5007480;28;20232;-65
2023/09/10 03:19:44;;;;;;;40.08;14.43;;;17.60;99.90;;;;;;5014532;28;20213;-65
2023/09/10 03:22:13;;;;;;;30.95;13.60;;;17.60;99.90;;;;;;5016949;28;20326;-64
2023/09/10 03:24:40;;;;;;;40.83;13.90;;;17.60;99.90;;;;;;5009192;28;20283;-65
2023/09/10 03:27:07;;;;;;;28.05;13.90;;;17.60;99.90;;;;;;4982954;28;20260;-65
2023/09/10 03:29:34;;;;;;;24.63;12.98;;;17.60;99.90;;;;;;5015554;28;20232;-65
2023/09/10 03:32:02;;;;;;;25.80;13.45;;;17.70;99.90;;;;;;5006758;28;20198;-65
2023/09/10 03:34:29;;;;;;;40.03;13.38;;;17.50;99.90;;;;;;5008741;28;20786;-65
2023/09/10 03:36:57;;;;;;;28.50;14.07;;;17.60;99.90;;;;;;5018001;28;20197;-64
2023/09/10 03:39:25;;;;;;;32.65;14.68;;;17.60;99.90;;;;;;5020954;28;20842;-65
2023/09/10 03:41:53;;;;;;;32.97;14.43;;;17.60;99.90;;;;;;4976358;28;20209;-65
2023/09/10 03:44:20;;;;;;;22.77;13.55;;;17.40;99.90;;;;;;5017917;28;21529;-65
2023/09/10 03:46:48;;;;;;;19.52;12.65;;;17.60;99.90;;;;;;5020802;28;20263;-65
2023/09/10 03:49:15;;;;;;;19.88;14.20;;;17.60;99.90;;;;;;5009617;28;20624;-65
2023/09/10 03:51:41;;;;;;;24.27;14.27;;;17.40;99.90;;;;;;5017218;28;24343;-65
2023/09/10 03:54:11;;;;;;;31.73;13.45;;;17.40;99.90;;;;;;5013507;28;20197;-65
2023/09/10 03:56:39;;;;;;;20.55;12.77;;;17.40;99.90;;;;;;5008736;28;20296;-65
2023/09/10 03:59:07;;;;;;;38.50;15.63;;;17.40;99.90;;;;;;4984562;28;20210;-65
2023/09/10 04:01:34;;;;;;;24.58;14.82;;;17.40;99.90;;;;;;5004799;28;20197;-64
2023/09/10 04:04:01;;;;;;;24.20;15.95;;;17.40;99.90;;;;;;5009380;28;20213;-65
2023/09/10 04:06:27;;;;;;;30.60;16.92;;;17.30;99.90;;;;;;5016024;28;20432;-65
2023/09/10 04:08:54;;;;;;;26.00;17.10;;;17.40;99.90;;;;;;5026328;28;20236;-65
2023/09/10 04:11:21;;;;;;;31.02;16.45;;;17.40;99.90;;;;;;5008900;28;20486;-65
2023/09/10 04:13:49;;;;;;;28.25;17.55;;;17.50;99.90;;;;;;4990911;28;20209;-65
2023/09/10 04:16:16;;;;;;;38.60;18.08;;;17.50;99.90;;;;;;5017690;28;20190;-65
2023/09/10 04:18:43;;;;;;;29.00;16.98;;;17.50;99.90;;;;;;5011939;28;20828;-65
2023/09/10 04:21:10;;;;;;;31.73;18.65;;;17.40;99.90;;;;;;5014881;28;20209;-65
2023/09/10 04:23:36;;;;;;;37.55;18.63;;;17.40;99.90;;;;;;5020113;28;21633;-65
2023/09/10 04:26:03;;;;;;;32.15;19.98;;;17.40;99.90;;;;;;5015644;28;20193;-65
2023/09/10 04:28:30;;;;;;;38.17;18.95;;;17.50;99.90;;;;;;4976917;28;22183;-65
2023/09/10 04:30:58;;;;;;;42.25;19.15;;;17.50;99.90;;;;;;5020476;28;20229;-64
2023/09/10 04:33:25;;;;;;;34.88;18.55;;;17.40;99.90;;;;;;5010582;28;20193;-65
2023/09/10 04:35:53;;;;;;;45.78;21.13;;;17.50;99.90;;;;;;5013804;28;20201;-65
2023/09/10 04:38:20;;;;;;;34.30;20.95;;;17.50;99.90;;;;;;5017694;28;20203;-65
2023/09/10 04:40:47;;;;;;;37.15;19.38;;;17.50;99.90;;;;;;5025774;28;20718;-65
2023/09/10 04:43:14;;;;;;;41.75;19.95;;;17.50;99.90;;;;;;5010771;28;20205;-65
2023/09/10 04:45:41;;;;;;;34.45;20.13;;;17.50;99.90;;;;;;4986639;28;20836;-65
2023/09/10 04:48:12;;;;;;;30.63;19.08;;;17.40;99.90;;;;;;5024217;28;20298;-65
2023/09/10 04:50:39;;;;;;;34.78;19.85;;;17.40;99.90;;;;;;5008075;28;20765;-65
2023/09/10 04:53:06;;;;;;;42.10;18.70;;;17.40;99.90;;;;;;5014739;28;20198;-65
2023/09/10 04:55:32;;;;;;;48.78;20.58;;;17.40;99.90;;;;;;5016285;28;21532;-65
2023/09/10 04:57:59;;;;;;;46.88;20.70;;;17.30;99.90;;;;;;5013938;28;20209;-65
2023/09/10 05:00:26;;;;;;;43.15;21.00;;;17.30;99.90;;;;;;4982917;28;20209;-65
2023/09/10 05:02:53;;;;;;;35.80;19.45;;;17.30;99.90;;;;;;5022924;28;20647;-65
2023/09/10 05:05:21;;;;;;;34.53;19.88;;;17.30;99.90;;;;;;5008892;28;20224;-65
2023/09/10 05:07:49;;;;;;;41.65;21.30;;;17.10;99.90;;;;;;5014363;28;20201;-65
2023/09/10 05:10:16;;;;;;;48.25;22.20;;;17.10;99.90;;;;;;5019226;28;20232;-65
2023/09/10 05:12:43;;;;;;;40.20;21.10;;;17.20;99.90;;;;;;5016403;28;20797;-65
2023/09/10 05:15:11;;;;;;;53.17;21.98;;;17.30;99.90;;;;;;4974194;28;20210;-65
2023/09/10 05:17:38;;;;;;;49.70;22.88;;;17.30;99.90;;;;;;5019114;28;20389;-66
2023/09/10 05:20:07;;;;;;;85.10;23.00;;;17.40;99.90;;;;;;5014868;28;20205;-65
2023/09/10 05:22:35;;;;;;;46.28;21.55;;;17.30;99.90;;;;;;5008221;28;20398;-65
2023/09/10 05:25:02;;;;;;;57.00;22.38;;;17.30;99.90;;;;;;5025787;28;20197;-65
2023/09/10 05:27:29;;;;;;;66.97;21.60;;;17.40;99.90;;;;;;5019809;28;20193;-65
2023/09/10 05:29:56;;;;;;;60.75;20.13;;;15.30;99.90;;;;;;5004361;28;20591;-65
2023/09/10 05:32:23;;;;;;;29.13;19.13;;;17.40;99.90;;;;;;5001023;28;20231;-65
2023/09/10 05:34:50;;;;;;;42.25;20.05;;;17.30;99.90;;;;;;5028283;28;20225;-65
2023/09/10 05:37:16;;;;;;;36.08;20.73;;;17.30;99.90;;;;;;5005355;28;20194;-65
2023/09/10 05:39:45;;;;;;;40.35;18.42;;;17.40;99.90;;;;;;5025946;28;21214;-65
2023/09/10 05:42:11;;;;;;;56.45;19.55;;;17.30;99.90;;;;;;5019710;28;20194;-65
2023/09/10 05:44:41;;;;;;;52.05;18.70;;;17.40;99.90;;;;;;5022218;28;20194;-65
2023/09/10 05:47:07;;;;;;;36.85;18.05;;;17.40;99.90;;;;;;4978603;28;20206;-65
2023/09/10 05:49:35;;;;;;;38.72;19.83;;;17.30;99.90;;;;;;5017356;28;20204;-65
2023/09/10 05:52:02;;;;;;;31.85;19.40;;;17.30;99.90;;;;;;5017579;28;20229;-65
2023/09/10 05:54:29;;;;;;;36.65;20.02;;;17.30;99.90;;;;;;5019902;28;20209;-65
2023/09/10 05:56:57;;;;;;;36.50;20.13;;;17.30;99.90;;;;;;5026671;28;20679;-65
2023/09/10 05:59:24;;;;;;;36.15;20.70;;;17.40;99.90;;;;;;5022069;28;20209;-65
2023/09/10 06:01:51;;;;;;;32.38;18.83;;;17.90;99.90;;;;;;4987677;28;20217;-65
2023/09/10 06:04:17;;;;;;;33.45;19.83;;;17.50;99.90;;;;;;5025428;28;20479;-65
2023/09/10 06:06:44;;;;;;;38.13;19.83;;;17.50;99.90;;;;;;4998231;28;20429;-65
2023/09/10 06:09:11;;;;;;;33.88;18.90;;;17.60;99.90;;;;;;5017789;28;20233;-65
2023/09/10 06:11:38;;;;;;;37.08;21.15;;;17.60;99.90;;;;;;5015341;28;20241;-65
2023/09/10 06:14:06;;;;;;;38.92;20.73;;;17.60;99.90;;;;;;5022086;28;20197;-65
2023/09/10 06:16:33;;;;;;;40.65;21.13;;;17.60;99.90;;;;;;4983838;28;20654;-65
2023/09/10 06:19:00;;;;;;;43.72;22.02;;;17.50;99.90;;;;;;5019677;28;20485;-65
2023/09/10 06:21:26;;;;;;;40.17;21.23;;;17.50;99.90;;;;;;5010368;28;20205;-65
2023/09/10 06:23:53;;;;;;;40.63;21.85;;;17.50;99.90;;;;;;5006107;28;20206;-65
2023/09/10 06:26:20;;;;;;;38.50;21.30;;;17.60;99.90;;;;;;5014272;28;20209;-65
2023/09/10 06:28:47;;;;;;;42.35;21.58;;;17.50;99.90;;;;;;5018018;28;20197;-66
2023/09/10 06:31:15;;;;;;;44.05;23.35;;;17.50;99.90;;;;;;4983233;28;21033;-65
2023/09/10 06:33:41;;;;;;;46.33;21.73;;;17.70;99.90;;;;;;5017514;28;20608;-65
2023/09/10 06:36:08;;;;;;;45.25;22.80;;;17.50;99.90;;;;;;5004984;28;20692;-65
2023/09/10 06:38:35;;;;;;;49.60;24.23;;;17.70;99.90;;;;;;5008016;28;20591;-65
2023/09/10 06:41:02;;;;;;;44.22;24.13;;;17.60;99.90;;;;;;5017367;28;20201;-65
2023/09/10 06:43:29;;;;;;;48.75;24.67;;;17.60;99.90;;;;;;5010344;28;20197;-65
2023/09/10 06:45:55;;;;;;;51.50;24.40;;;17.70;99.90;;;;;;5014892;28;20193;-65
2023/09/10 06:48:23;;;;;;;50.90;25.52;;;17.70;99.90;;;;;;4978940;28;20205;-65
2023/09/10 06:50:50;;;;;;;47.65;24.55;;;17.70;99.90;;;;;;5014337;28;20256;-65
2023/09/10 06:53:17;;;;;;;51.30;26.23;;;17.70;99.90;;;;;;5008849;28;20634;-65
2023/09/10 06:55:44;;;;;;;51.25;25.27;;;17.80;99.90;;;;;;5017014;28;20686;-65
2023/09/10 06:58:14;;;;;;;50.25;25.40;;;17.60;99.90;;;;;;5011721;28;21007;-65
2023/09/10 07:00:40;;;;;;;57.20;26.23;;;17.80;99.90;;;;;;5018537;28;20201;-65
2023/09/10 07:03:08;;;;;;;49.47;25.15;;;17.70;99.90;;;;;;4961029;28;20225;-65
2023/09/10 07:05:38;;;;;;;49.58;26.25;;;17.80;99.90;;;;;;5014739;28;20202;-66
2023/09/10 07:08:06;;;;;;;52.28;27.77;;;17.80;99.90;;;;;;5003234;28;20201;-65
2023/09/10 07:10:33;;;;;;;44.88;25.10;;;17.80;99.90;;;;;;4992188;28;20346;-65
2023/09/10 07:13:00;;;;;;;49.00;25.25;;;17.80;99.90;;;;;;5016061;28;21068;-65
2023/09/10 07:15:26;;;;;;;48.53;24.83;;;17.80;99.90;;;;;;5009839;28;20210;-65
2023/09/10 07:17:54;;;;;;;48.05;24.85;;;17.70;99.90;;;;;;4993171;28;20244;-65
2023/09/10 07:20:20;;;;;;;49.85;26.23;;;17.70;99.90;;;;;;4981939;28;20210;-65
2023/09/10 07:22:49;;;;;;;52.88;26.23;;;17.60;99.90;;;;;;5014793;28;20197;-65
2023/09/10 07:25:15;;;;;;;50.03;26.60;;;17.50;99.90;;;;;;5005537;28;20232;-65
2023/09/10 07:27:42;;;;;;;52.95;26.08;;;17.70;99.90;;;;;;5000956;28;20231;-65
2023/09/10 07:30:11;;;;;;;54.25;26.15;;;17.60;99.90;;;;;;4969148;28;20209;-65
2023/09/10 07:32:38;;;;;;;51.35;25.67;;;17.70;99.90;;;;;;5011850;28;20781;-65
2023/09/10 07:35:05;;;;;;;54.08;26.52;;;17.80;99.90;;;;;;4980215;28;20209;-65
2023/09/10 07:37:32;;;;;;;53.90;25.02;;;17.90;99.90;;;;;;5022832;28;20205;-65
2023/09/10 07:40:00;;;;;;;51.03;26.13;;;17.70;99.90;;;;;;5021551;28;20516;-65
2023/09/10 07:42:26;;;;;;;52.20;25.92;;;17.70;99.90;;;;;;5023103;28;20206;-65
2023/09/10 07:44:53;;;;;;;47.58;25.08;;;17.80;99.90;;;;;;5011636;28;20387;-65
2023/09/10 07:47:21;;;;;;;50.42;25.67;;;17.80;99.90;;;;;;5000218;28;20205;-65
2023/09/10 07:49:51;;;;;;;47.22;24.42;;;18.10;99.90;;;;;;4975179;28;20823;-65
2023/09/10 07:52:19;;;;;;;44.65;24.02;;;18.00;99.90;;;;;;5027064;28;20229;-65
2023/09/10 07:54:47;;;;;;;47.25;24.30;;;17.90;99.90;;;;;;5016141;28;20301;-65
2023/09/10 07:57:16;;;;;;;45.50;25.38;;;18.00;99.90;;;;;;5024686;28;20200;-65
2023/09/10 07:59:43;;;;;;;45.95;24.75;;;17.80;99.90;;;;;;5012404;28;20201;-66
2023/09/10 08:02:10;;;;;;;43.25;25.40;;;17.90;99.90;;;;;;4990209;28;20227;-65
2023/09/10 08:04:37;;;;;;;45.33;25.67;;;17.80;99.90;;;;;;5001515;28;20202;-65
2023/09/10 08:07:04;;;;;;;48.20;25.77;;;17.90;99.90;;;;;;4967918;28;20232;-65
2023/09/10 08:09:31;;;;;;;49.20;25.60;;;18.00;99.90;;;;;;5011821;28;20216;-65
2023/09/10 08:11:58;;;;;;;45.83;26.10;;;18.00;99.90;;;;;;5024017;28;20236;-65
2023/09/10 08:14:26;;;;;;;47.03;25.77;;;18.10;99.90;;;;;;5018993;28;20222;-65
2023/09/10 08:16:53;;;;;;;40.65;23.63;;;18.00;99.90;;;;;;5003792;28;20205;-65
2023/09/10 08:19:20;;;;;;;39.65;25.17;;;18.20;99.90;;;;;;5005361;28;20232;-65
2023/09/10 08:21:47;;;;;;;45.33;25.10;;;18.10;99.90;;;;;;4977755;28;20229;-65
2023/09/10 08:24:13;;;;;;;43.20;24.95;;;18.20;99.90;;;;;;5002391;28;20244;-65
2023/09/10 08:26:40;;;;;;;44.95;25.25;;;18.20;99.90;;;;;;5005545;28;20205;-65
2023/09/10 08:29:07;;;;;;;44.80;25.90;;;18.30;99.90;;;;;;5023544;28;20662;-65
2023/09/10 08:31:35;;;;;;;40.40;24.08;;;18.40;99.90;;;;;;5006426;28;20233;-65
2023/09/10 08:34:02;;;;;;;40.45;24.83;;;18.40;99.90;;;;;;5010168;28;20412;-65
2023/09/10 08:36:29;;;;;;;42.58;25.55;;;18.40;99.90;;;;;;5011446;28;20469;-65
2023/09/10 08:38:55;;;;;;;40.83;24.55;;;18.40;99.90;;;;;;4984935;28;20210;-65
2023/09/10 08:41:30;;;;;;;43.85;24.95;;;18.50;99.90;;;;;;5012865;28;20220;-65
2023/09/10 08:43:58;;;;;;;41.05;23.00;;;18.60;99.90;;;;;;5013275;28;20225;-65
2023/09/10 08:46:31;;;;;;;38.83;24.63;;;18.60;99.90;;;;;;5009497;28;20527;-65
2023/09/10 08:49:00;;;;;;;40.70;23.95;;;18.60;99.90;;;;;;5006857;28;20234;-65
2023/09/10 08:51:27;;;;;;;39.30;23.45;;;18.70;99.90;;;;;;5012209;28;20221;-65
2023/09/10 08:53:57;;;;;;;37.65;23.77;;;18.70;99.90;;;;;;4982814;28;20579;-65
2023/09/10 08:56:25;;;;;;;36.83;22.38;;;18.70;99.90;;;;;;5012338;28;20642;-65
2023/09/10 08:58:53;;;;;;;37.95;23.42;;;18.70;99.90;;;;;;5019340;28;20224;-65
2023/09/10 09:01:22;;;;;;;41.78;25.45;;;18.70;99.90;;;;;;5013249;28;20205;-65
2023/09/10 09:03:49;;;;;;;38.50;22.98;;;18.80;99.90;;;;;;5006751;28;20198;-65
2023/09/10 09:06:18;;;;;;;38.85;22.83;;;18.80;99.90;;;;;;5018885;28;24235;-65
2023/09/10 09:08:50;;;;;;;35.63;23.23;;;18.80;99.90;;;;;;4959878;28;20210;-65
2023/09/10 09:11:18;;;;;;;38.55;22.77;;;18.80;99.90;;;;;;4981549;28;20686;-65
2023/09/10 09:13:47;;;;;;;41.28;23.98;;;18.90;99.90;;;;;;5012449;28;20209;-65
2023/09/10 09:16:14;;;;;;;38.03;24.40;;;19.00;99.90;;;;;;5015297;28;20201;-65
2023/09/10 09:18:43;;;;;;;37.40;23.88;;;19.00;99.90;;;;;;5006897;28;20237;-65
2023/09/10 09:21:15;;;;;;;35.05;22.35;;;19.10;99.90;;;;;;5004877;28;20201;-65
2023/09/10 09:23:47;;;;;;;37.53;23.58;;;19.20;99.90;;;;;;4966385;28;20781;-66
2023/09/10 09:26:14;;;;;;;39.35;23.73;;;19.10;99.90;;;;;;5000959;28;20670;-66
2023/09/10 09:28:41;;;;;;;34.88;22.08;;;19.10;99.90;;;;;;5004671;28;20217;-65
2023/09/10 09:31:09;;;;;;;37.30;22.13;;;19.10;99.90;;;;;;5017853;28;20221;-65
2023/09/10 09:33:37;;;;;;;34.92;22.50;;;19.00;99.90;;;;;;5014130;28;20245;-65
2023/09/10 09:36:07;;;;;;;33.13;21.73;;;19.20;99.90;;;;;;5019311;28;20217;-65
2023/09/10 09:38:34;;;;;;;35.38;22.13;;;19.30;99.90;;;;;;5013772;22;20226;-65
2023/09/10 09:41:04;;;;;;;34.33;22.10;;;19.30;99.90;;;;;;4998544;28;20694;-65
2023/09/10 09:43:34;;;;;;;40.65;23.00;;;19.40;99.90;;;;;;5016087;28;20236;-66
2023/09/10 09:46:01;;;;;;;39.08;23.00;;;19.40;99.90;;;;;;5020072;28;20227;-65
2023/09/10 09:48:28;;;;;;;34.90;21.67;;;19.70;99.90;;;;;;5040178;28;20220;-66
2023/09/10 09:50:55;;;;;;;34.80;22.42;;;19.40;99.90;;;;;;5027016;28;20307;-65
2023/09/10 09:53:24;;;;;;;38.25;24.17;;;19.60;99.90;;;;;;5037209;28;20988;-65
2023/09/10 09:55:55;;;;;;;38.45;23.25;;;19.70;99.90;;;;;;4985614;28;20233;-66
2023/09/10 09:58:23;;;;;;;36.67;23.33;;;19.50;99.90;;;;;;5018183;28;20232;-66
2023/09/10 10:00:50;;;;;;;31.83;21.23;;;19.80;99.90;;;;;;5015328;28;20225;-66
2023/09/10 10:03:18;;;;;;;32.30;21.05;;;19.80;99.90;;;;;;5030003;28;20228;-66
2023/09/10 10:05:48;;;;;;;28.88;18.83;;;19.80;99.90;;;;;;5032966;28;20223;-66
2023/09/10 10:08:15;;;;;;;31.42;21.02;;;19.90;99.90;;;;;;5021794;28;20989;-66
2023/09/10 10:10:47;;;;;;;30.35;20.60;;;20.00;99.90;;;;;;4977361;28;21953;-66
2023/09/10 10:13:17;;;;;;;32.47;21.58;;;20.10;99.90;;;;;;5030410;28;20306;-66
2023/09/10 10:15:46;;;;;;;38.15;23.92;;;20.10;99.90;;;;;;5008436;28;20235;-66
2023/09/10 10:18:14;;;;;;;35.97;22.42;;;20.20;99.90;;;;;;5025081;28;20208;-67
2023/09/10 10:20:46;;;;;;;37.17;23.80;;;20.20;99.90;;;;;;5035003;28;20534;-66
2023/09/10 10:23:13;;;;;;;39.22;23.85;;;20.20;99.90;;;;;;5024322;28;20288;-66
2023/09/10 10:25:40;;;;;;;39.08;23.25;;;20.60;99.90;;;;;;4988266;28;22810;-66
2023/09/10 10:28:09;;;;;;;36.47;23.08;;;20.30;99.90;;;;;;5029948;28;20220;-66
2023/09/10 10:30:39;;;;;;;34.63;22.40;;;20.20;99.90;;;;;;5011715;28;20982;-66
2023/09/10 10:33:10;;;;;;;38.28;23.73;;;20.20;99.90;;;;;;5027488;28;20221;-66
2023/09/10 10:35:40;;;;;;;34.33;23.35;;;20.20;99.90;;;;;;5032080;28;20271;-66
2023/09/10 10:38:09;;;;;;;35.33;22.95;;;20.30;99.90;;;;;;5023331;28;20639;-66
2023/09/10 10:40:39;;;;;;;35.00;22.27;;;20.40;99.90;;;;;;5028257;28;20232;-66
2023/09/10 10:43:10;;;;;;;32.45;22.08;;;20.40;99.90;;;;;;4983214;28;20211;-66
2023/09/10 10:45:37;;;;;;;37.42;22.85;;;20.40;99.90;;;;;;5003169;28;20598;-66
2023/09/10 10:48:08;;;;;;;41.78;23.92;;;20.50;99.90;;;;;;5013141;28;20220;-66
2023/09/10 10:50:37;;;;;;;36.75;23.25;;;20.50;99.90;;;;;;5021219;28;20213;-66
2023/09/10 10:53:07;;;;;;;37.10;22.23;;;20.60;99.90;;;;;;5023360;28;20237;-66
2023/09/10 10:55:35;;;;;;;37.50;24.20;;;20.60;99.90;;;;;;5011717;28;20217;-67
2023/09/10 10:58:03;;;;;;;40.42;24.08;;;19.80;99.90;;;;;;4974426;28;21720;-67
2023/09/10 11:00:30;;;;;;;40.60;24.25;;;20.80;99.90;;;;;;5007124;28;20217;-67
2023/09/10 11:03:10;;;;;;;42.45;24.65;;;20.80;99.90;;;;;;5008298;28;20205;-67
2023/09/10 11:06:07;;;;;;;39.05;24.00;;;20.80;99.90;;;;;;5016706;28;20205;-67
2023/09/10 11:08:36;;;;;;;44.17;24.20;;;20.80;99.90;;;;;;5010306;28;20205;-68
2023/09/10 11:11:04;;;;;;;38.97;24.40;;;20.90;99.90;;;;;;5019409;28;20763;-67
2023/09/10 11:13:32;;;;;;;42.42;25.27;;;20.90;99.90;;;;;;4997773;28;20791;-67
2023/09/10 11:16:18;;;;;;;38.60;23.55;;;21.00;99.90;;;;;;5019378;28;20369;-66
2023/09/10 11:18:45;;;;;;;39.45;23.65;;;21.00;99.90;;;;;;5012829;28;20361;-66
2023/09/10 11:21:14;;;;;;;38.28;22.35;;;21.00;99.90;;;;;;5030352;28;20257;-66
2023/09/10 11:24:06;;;;;;;36.67;22.48;;;21.10;99.90;;;;;;5017553;28;20216;-66
2023/09/10 11:26:33;;;;;;;33.83;20.75;;;21.10;99.90;;;;;;5031722;28;20220;-66
2023/09/10 11:29:01;;;;;;;39.47;22.02;;;21.20;99.90;;;;;;4997083;28;22843;-66
2023/09/10 11:31:39;;;;;;;37.67;22.02;;;21.20;99.90;;;;;;5033487;28;20278;-66
2023/09/10 11:34:39;;;;;;;33.63;19.13;;;21.20;99.90;;;;;;5034910;28;20224;-66
2023/09/10 11:37:09;;;;;;;36.33;21.65;;;21.20;99.90;;;;;;5021417;28;20224;-66
2023/09/10 11:39:37;;;;;;;33.15;20.52;;;21.30;99.90;;;;;;5020786;28;20233;-66
2023/09/10 11:42:08;;;;;;;37.65;21.60;;;21.40;99.90;;;;;;5033526;28;20228;-66
2023/09/10 11:44:36;;;;;;;36.75;21.65;;;21.40;99.90;;;;;;5007809;28;20711;-67
2023/09/10 11:47:04;;;;;;;39.55;23.75;;;21.40;99.90;;;;;;5028644;28;20235;-66
2023/09/10 11:49:30;;;;;;;37.22;22.33;;;21.50;99.90;;;;;;5034012;28;20213;-66
2023/09/10 11:51:58;;;;;;;40.70;23.80;;;21.60;99.90;;;;;;5026598;28;20746;-66
2023/09/10 11:54:27;;;;;;;32.33;20.05;;;21.60;99.90;;;;;;5012851;28;20228;-66
2023/09/10 11:56:56;;;;;;;31.25;17.90;;;21.70;99.90;;;;;;5035018;28;20775;-66
2023/09/10 11:59:25;;;;;;;30.80;19.25;;;21.70;99.90;;;;;;5035510;28;20212;-66
2023/09/10 12:01:54;;;;;;;29.33;17.33;;;21.80;99.90;;;;;;4966195;28;20716;-66
2023/09/10 12:04:26;;;;;;;29.48;18.58;;;21.80;99.90;;;;;;5026706;28;20224;-66
2023/09/10 12:06:53;;;;;;;35.55;19.92;;;21.80;99.90;;;;;;5006416;28;20859;-66
2023/09/10 12:09:19;;;;;;;30.17;19.65;;;21.80;99.90;;;;;;5014732;28;20233;-66
2023/09/10 12:11:50;;;;;;;32.83;19.52;;;21.90;99.90;;;;;;5014559;28;20217;-66
2023/09/10 12:14:18;;;;;;;25.05;16.08;;;22.00;99.90;;;;;;5036006;28;20224;-66
2023/09/10 12:16:45;;;;;;;34.97;19.30;;;22.40;99.90;;;;;;4989532;28;20647;-66
2023/09/10 12:19:12;;;;;;;28.98;17.95;;;22.20;99.90;;;;;;5038474;28;20193;-66
2023/09/10 12:21:42;;;;;;;29.23;18.10;;;22.20;99.90;;;;;;5021830;28;20759;-66
2023/09/10 12:24:10;;;;;;;39.90;21.98;;;22.20;99.90;;;;;;5002452;28;20853;-66
2023/09/10 12:26:37;;;;;;;40.25;22.13;;;22.30;99.90;;;;;;5023414;28;20216;-66
2023/09/10 12:29:05;;;;;;;38.33;21.33;;;22.30;99.90;;;;;;5002491;28;20560;-66
2023/09/10 12:31:32;;;;;;;33.33;20.95;;;22.30;99.90;;;;;;4995539;28;20700;-66